createdAt,value
2023-02-19T00:00:14.947Z,83.69
2023-02-19T00:02:59.238Z,83.85
2023-02-19T00:05:38.316Z,84.09
2023-02-19T00:08:30.585Z,83.50
2023-02-19T00:11:14.661Z,83.33
2023-02-19T00:13:55.506Z,83.35
2023-02-19T00:16:47.536Z,83.27
2023-02-19T00:19:30.359Z,82.31
2023-02-19T00:22:25.059Z,82.18
2023-02-19T00:25:03.709Z,82.96
2023-02-19T00:27:45.296Z,83.40
2023-02-19T00:30:33.943Z,83.35
2023-02-19T00:33:14.071Z,83.03
2023-02-19T00:35:55.074Z,82.13
2023-02-19T00:38:42.119Z,82.45
2023-02-19T00:41:22.444Z,82.14
2023-02-19T00:44:03.378Z,82.11
2023-02-19T00:46:47.535Z,82.85
2023-02-19T00:49:39.434Z,82.71
2023-02-19T00:52:21.303Z,83.36
2023-02-19T00:55:08.328Z,83.41
2023-02-19T00:57:55.190Z,83.20
2023-02-19T01:00:36.971Z,83.55
2023-02-19T01:03:19.688Z,83.74
2023-02-19T01:06:01.156Z,84.57
2023-02-19T01:08:50.703Z,84.63
2023-02-19T01:11:42.225Z,85.57
2023-02-19T01:14:17.260Z,86.12
2023-02-19T01:16:58.160Z,86.51
2023-02-19T01:19:42.524Z,86.79
2023-02-19T01:22:38.657Z,88.19
2023-02-19T01:25:24.742Z,88.23
2023-02-19T01:28:13.661Z,88.89
2023-02-19T01:30:54.868Z,89.48
2023-02-19T01:33:34.095Z,90.59
2023-02-19T01:36:21.517Z,90.92
2023-02-19T01:38:54.646Z,91.83
2023-02-19T01:41:38.997Z,91.79
2023-02-19T01:44:56.415Z,92.03
2023-02-19T01:47:48.278Z,91.67
2023-02-19T01:50:38.287Z,92.37
2023-02-19T01:53:27.782Z,92.67
2023-02-19T01:56:21.050Z,93.34
2023-02-19T01:59:09.865Z,93.49
2023-02-19T02:01:48.210Z,93.38
2023-02-19T02:04:34.407Z,93.41
2023-02-19T02:07:32.042Z,93.68
2023-02-19T02:10:31.348Z,93.46
2023-02-19T02:13:10.554Z,93.49
2023-02-19T02:16:01.407Z,93.50
2023-02-19T02:18:54.675Z,93.61
2023-02-19T02:22:21.639Z,93.33
2023-02-19T02:26:14.298Z,93.96
2023-02-19T02:29:37.360Z,94.76
2023-02-19T02:32:26.256Z,95.43
2023-02-19T02:35:23.578Z,95.30
2023-02-19T02:38:08.226Z,95.76
2023-02-19T02:40:53.487Z,96.00
2023-02-19T02:43:37.041Z,96.03
2023-02-19T02:46:37.882Z,96.11
2023-02-19T02:49:23.759Z,96.95
2023-02-19T02:52:25.262Z,97.20
2023-02-19T02:55:13.256Z,97.84
2023-02-19T02:57:53.612Z,97.52
2023-02-19T03:01:04.820Z,98.39
2023-02-19T03:03:51.081Z,98.21
2023-02-19T03:06:30.555Z,99.27
2023-02-19T03:09:37.353Z,99.44
2023-02-19T03:12:36.956Z,99.72
2023-02-19T03:15:31.532Z,99.70
2023-02-19T03:18:30.712Z,99.71
2023-02-19T03:21:17.381Z,99.72
2023-02-19T03:24:12.352Z,99.30
2023-02-19T03:26:57.059Z,99.16
2023-02-19T03:29:45.016Z,99.81
2023-02-19T03:32:29.061Z,99.94
2023-02-19T03:35:33.955Z,100.00
2023-02-19T03:38:39.578Z,99.73
2023-02-19T03:41:58.980Z,99.69
2023-02-19T03:45:23.123Z,100.00
2023-02-19T03:48:34.689Z,100.00
2023-02-19T03:51:58.934Z,100.00
2023-02-19T03:54:58.100Z,100.00
2023-02-19T03:58:14.175Z,100.00
2023-02-19T04:01:16.247Z,100.00
2023-02-19T04:03:57.466Z,100.00
2023-02-19T04:06:48.516Z,100.00
2023-02-19T04:09:33.457Z,100.00
2023-02-19T04:12:17.356Z,100.00
2023-02-19T04:15:24.794Z,100.00
2023-02-19T04:18:36.300Z,100.00
2023-02-19T04:21:19.013Z,100.00
2023-02-19T04:24:15.346Z,100.00
2023-02-19T04:26:57.221Z,100.00
2023-02-19T04:29:38.848Z,100.00
2023-02-19T04:32:31.243Z,100.00
2023-02-19T04:35:20.757Z,100.00
2023-02-19T04:38:13.978Z,100.00
2023-02-19T04:40:52.494Z,100.00
2023-02-19T04:43:42.917Z,100.00
2023-02-19T04:46:35.039Z,100.00
2023-02-19T04:49:19.280Z,100.00
2023-02-19T04:52:07.200Z,100.00
2023-02-19T04:55:04.147Z,100.00
2023-02-19T04:57:50.738Z,100.00
2023-02-19T05:00:37.080Z,100.00
2023-02-19T05:03:18.165Z,100.00
2023-02-19T05:06:09.238Z,100.00
2023-02-19T05:08:55.490Z,100.00
2023-02-19T05:11:41.761Z,100.00
2023-02-19T05:14:24.441Z,100.00
2023-02-19T05:17:08.078Z,100.00
2023-02-19T05:19:51.116Z,100.00
2023-02-19T05:22:38.375Z,100.00
2023-02-19T05:25:24.371Z,100.00
2023-02-19T05:28:28.708Z,100.00
2023-02-19T05:31:16.369Z,100.00
2023-02-19T05:34:08.893Z,100.00
2023-02-19T05:36:47.327Z,100.00
2023-02-19T05:39:27.521Z,100.00
2023-02-19T05:42:23.416Z,100.00
2023-02-19T05:45:15.060Z,100.00
2023-02-19T05:48:01.219Z,100.00
2023-02-19T05:50:51.789Z,100.00
2023-02-19T05:53:39.979Z,100.00
2023-02-19T05:56:35.352Z,100.00
2023-02-19T05:59:38.558Z,100.00
2023-02-19T06:02:28.700Z,100.00
2023-02-19T06:05:12.684Z,100.00
2023-02-19T06:07:50.943Z,100.00
2023-02-19T06:10:39.204Z,100.00
2023-02-19T06:13:38.682Z,100.00
2023-02-19T06:16:25.967Z,100.00
2023-02-19T06:19:13.840Z,100.00
2023-02-19T06:22:03.928Z,100.00
2023-02-19T06:24:51.266Z,100.00
2023-02-19T06:27:51.120Z,100.00
2023-02-19T06:30:35.320Z,100.00
2023-02-19T06:33:23.687Z,100.00
2023-02-19T06:36:04.538Z,100.00
2023-02-19T06:38:58.740Z,100.00
2023-02-19T06:41:39.736Z,100.00
2023-02-19T06:44:23.188Z,100.00
2023-02-19T06:47:13.417Z,100.00
2023-02-19T06:49:56.766Z,100.00
2023-02-19T06:52:53.974Z,100.00
2023-02-19T06:55:39.475Z,100.00
2023-02-19T06:58:23.184Z,100.00
2023-02-19T07:01:11.589Z,100.00
2023-02-19T07:03:53.337Z,100.00
2023-02-19T07:06:37.152Z,100.00
2023-02-19T07:09:24.137Z,100.00
2023-02-19T07:12:11.264Z,100.00
2023-02-19T07:14:48.598Z,100.00
2023-02-19T07:17:32.466Z,100.00
2023-02-19T07:20:19.233Z,100.00
2023-02-19T07:22:59.909Z,100.00
2023-02-19T07:25:50.261Z,100.00
2023-02-19T07:28:34.405Z,100.00
2023-02-19T07:31:14.261Z,100.00
2023-02-19T07:34:01.529Z,100.00
2023-02-19T07:36:43.230Z,100.00
2023-02-19T07:39:29.280Z,100.00
2023-02-19T07:42:15.314Z,100.00
2023-02-19T07:45:00.607Z,100.00
2023-02-19T07:47:48.322Z,100.00
2023-02-19T07:50:29.396Z,100.00
2023-02-19T07:53:15.744Z,100.00
2023-02-19T07:56:06.327Z,100.00
2023-02-19T07:58:47.370Z,100.00
2023-02-19T08:01:46.815Z,100.00
2023-02-19T08:04:30.675Z,100.00
2023-02-19T08:07:33.640Z,100.00
2023-02-19T08:10:28.139Z,100.00
2023-02-19T08:13:25.492Z,100.00
2023-02-19T08:16:42.875Z,100.00
2023-02-19T08:19:21.176Z,99.56
2023-02-19T08:22:03.008Z,100.00
2023-02-19T08:24:45.426Z,100.00
2023-02-19T08:27:35.310Z,100.00
2023-02-19T08:30:13.077Z,100.00
2023-02-19T08:33:02.277Z,100.00
2023-02-19T08:35:40.263Z,100.00
2023-02-19T08:38:26.950Z,100.00
2023-02-19T08:41:00.026Z,100.00
2023-02-19T08:43:44.282Z,100.00
2023-02-19T08:46:34.094Z,100.00
2023-02-19T08:49:10.178Z,100.00
2023-02-19T08:51:54.303Z,100.00
2023-02-19T08:54:41.544Z,100.00
2023-02-19T08:57:26.306Z,100.00
2023-02-19T09:00:13.232Z,100.00
2023-02-19T09:03:03.756Z,100.00
2023-02-19T09:05:47.240Z,100.00
2023-02-19T09:09:06.595Z,100.00
2023-02-19T09:11:54.256Z,100.00
2023-02-19T09:14:34.982Z,100.00
2023-02-19T09:17:19.071Z,100.00
2023-02-19T09:19:54.385Z,100.00
2023-02-19T09:22:45.018Z,100.00
2023-02-19T09:25:31.503Z,100.00
2023-02-19T09:28:23.217Z,100.00
2023-02-19T09:31:24.391Z,100.00
2023-02-19T09:34:02.315Z,100.00
2023-02-19T09:36:40.946Z,100.00
2023-02-19T09:39:33.308Z,100.00
2023-02-19T09:42:51.823Z,100.00
2023-02-19T09:45:38.632Z,100.00
2023-02-19T09:48:24.885Z,100.00
2023-02-19T09:51:06.582Z,100.00
2023-02-19T09:53:54.049Z,100.00
2023-02-19T09:56:40.041Z,100.00
2023-02-19T09:59:39.382Z,100.00
2023-02-19T10:02:31.252Z,100.00
2023-02-19T10:05:21.521Z,100.00
2023-02-19T10:07:59.323Z,100.00
2023-02-19T10:10:47.268Z,100.00
2023-02-19T10:14:01.767Z,100.00
2023-02-19T10:16:45.268Z,100.00
2023-02-19T10:19:25.926Z,100.00
2023-02-19T10:22:02.082Z,100.00
2023-02-19T10:24:45.910Z,100.00
2023-02-19T10:27:35.214Z,100.00
2023-02-19T10:30:23.729Z,100.00
2023-02-19T10:33:21.352Z,100.00
2023-02-19T10:36:31.300Z,100.00
2023-02-19T10:39:31.697Z,100.00
2023-02-19T10:42:26.451Z,100.00
2023-02-19T10:45:19.729Z,100.00
2023-02-19T10:48:08.130Z,100.00
2023-02-19T10:51:00.527Z,100.00
2023-02-19T10:54:04.331Z,100.00
2023-02-19T10:56:49.725Z,100.00
2023-02-19T10:59:34.773Z,100.00
2023-02-19T11:02:31.373Z,100.00
2023-02-19T11:05:23.428Z,100.00
2023-02-19T11:08:03.533Z,100.00
2023-02-19T11:10:56.316Z,100.00
2023-02-19T11:13:43.280Z,100.00
2023-02-19T11:16:22.726Z,100.00
2023-02-19T11:19:12.301Z,100.00
2023-02-19T11:21:59.591Z,100.00
2023-02-19T11:24:44.338Z,100.00
2023-02-19T11:27:32.273Z,98.46
2023-02-19T11:30:53.274Z,100.00
2023-02-19T11:33:37.131Z,96.24
2023-02-19T11:36:37.444Z,95.64
2023-02-19T11:39:18.682Z,96.68
2023-02-19T11:42:48.492Z,94.71
2023-02-19T11:46:05.570Z,95.50
2023-02-19T11:48:47.829Z,93.20
2023-02-19T11:51:41.646Z,93.71
2023-02-19T11:54:55.001Z,95.32
2023-02-19T11:57:50.404Z,96.40
2023-02-19T12:00:32.380Z,96.09
2023-02-19T12:03:43.571Z,96.28
2023-02-19T12:06:51.113Z,97.82
2023-02-19T12:09:45.175Z,97.63
2023-02-19T12:12:32.745Z,95.65
2023-02-19T12:15:41.201Z,92.58
2023-02-19T12:19:21.359Z,92.09
2023-02-19T12:22:13.998Z,94.10
2023-02-19T12:25:40.263Z,96.65
2023-02-19T12:28:28.482Z,100.00
2023-02-19T12:31:47.296Z,100.00
2023-02-19T12:34:49.260Z,100.00
2023-02-19T12:37:42.271Z,100.00
2023-02-19T12:41:04.009Z,99.32
2023-02-19T12:43:49.354Z,100.00
2023-02-19T12:46:47.079Z,100.00
2023-02-19T12:49:37.356Z,100.00
2023-02-19T12:52:26.650Z,100.00
2023-02-19T12:55:17.177Z,100.00
2023-02-19T12:57:58.387Z,100.00
2023-02-19T13:01:01.591Z,100.00
2023-02-19T13:04:08.641Z,100.00
2023-02-19T13:06:59.162Z,100.00
2023-02-19T13:09:50.163Z,100.00
2023-02-19T13:12:44.277Z,100.00
2023-02-19T13:15:41.350Z,100.00
2023-02-19T13:18:27.573Z,100.00
2023-02-19T13:21:13.379Z,98.96
2023-02-19T13:24:20.300Z,99.60
2023-02-19T13:27:48.439Z,100.00
2023-02-19T13:30:41.291Z,100.00
2023-02-19T13:33:39.410Z,96.22
2023-02-19T13:36:26.602Z,97.51
2023-02-19T13:39:12.735Z,97.33
2023-02-19T13:42:25.677Z,97.71
2023-02-19T13:45:14.031Z,92.86
2023-02-19T13:48:15.912Z,94.62
2023-02-19T13:51:47.891Z,90.34
2023-02-19T13:54:40.411Z,92.96
2023-02-19T13:57:32.258Z,93.25
2023-02-19T14:00:49.035Z,94.24
2023-02-19T14:04:26.895Z,95.84
2023-02-19T14:07:14.700Z,99.01
2023-02-19T14:10:01.946Z,100.00
2023-02-19T14:12:45.350Z,98.77
2023-02-19T14:15:44.688Z,96.98
2023-02-19T14:18:56.777Z,97.08
2023-02-19T14:21:46.650Z,95.93
2023-02-19T14:24:26.243Z,91.62
2023-02-19T14:27:12.853Z,91.52
2023-02-19T14:29:58.317Z,90.15
2023-02-19T14:32:43.389Z,89.57
2023-02-19T14:35:42.971Z,89.85
2023-02-19T14:38:33.743Z,89.07
2023-02-19T14:41:24.197Z,89.17
2023-02-19T14:44:04.147Z,90.14
2023-02-19T14:46:50.417Z,91.23
2023-02-19T14:49:44.627Z,92.21
2023-02-19T14:52:41.062Z,90.92
2023-02-19T14:55:31.216Z,91.62
2023-02-19T14:58:39.318Z,92.72
2023-02-19T15:01:35.463Z,93.69
2023-02-19T15:04:32.293Z,94.34
2023-02-19T15:07:19.611Z,94.20
2023-02-19T15:10:03.679Z,95.58
2023-02-19T15:12:59.192Z,96.96
2023-02-19T15:15:48.084Z,97.36
2023-02-19T15:18:52.208Z,98.20
2023-02-19T15:21:35.302Z,99.11
2023-02-19T15:24:14.998Z,99.71
2023-02-19T15:27:00.300Z,99.44
2023-02-19T15:29:57.333Z,99.42
2023-02-19T15:33:00.276Z,99.64
2023-02-19T15:35:46.297Z,100.00
2023-02-19T15:38:33.508Z,100.00
2023-02-19T15:41:30.254Z,100.00
2023-02-19T15:44:32.221Z,100.00
2023-02-19T15:47:29.773Z,100.00
2023-02-19T15:50:30.264Z,100.00
2023-02-19T15:53:31.793Z,100.00
2023-02-19T15:56:15.240Z,100.00
2023-02-19T15:59:18.389Z,100.00
2023-02-19T16:02:05.236Z,100.00
2023-02-19T16:04:58.014Z,100.00
2023-02-19T16:07:42.164Z,100.00
2023-02-19T16:10:41.127Z,100.00
2023-02-19T16:13:43.481Z,100.00
2023-02-19T16:16:43.716Z,100.00
2023-02-19T16:19:33.965Z,100.00
2023-02-19T16:22:25.931Z,100.00
2023-02-19T16:25:08.373Z,100.00
2023-02-19T16:27:48.067Z,100.00
2023-02-19T16:30:46.329Z,100.00
2023-02-19T16:33:48.746Z,100.00
2023-02-19T16:36:48.549Z,100.00
2023-02-19T16:39:25.559Z,100.00
2023-02-19T16:42:31.256Z,100.00
2023-02-19T16:45:18.091Z,100.00
2023-02-19T16:48:16.787Z,100.00
2023-02-19T16:50:53.936Z,100.00
2023-02-19T16:53:35.873Z,100.00
2023-02-19T16:56:24.179Z,100.00
2023-02-19T16:59:05.298Z,100.00
2023-02-19T17:01:52.033Z,100.00
2023-02-19T17:04:35.467Z,100.00
2023-02-19T17:07:19.065Z,100.00
2023-02-19T17:10:18.084Z,100.00
2023-02-19T17:13:21.065Z,100.00
2023-02-19T17:16:03.320Z,100.00
2023-02-19T17:18:46.961Z,100.00
2023-02-19T17:21:38.861Z,100.00
2023-02-19T17:24:24.603Z,100.00
2023-02-19T17:27:12.366Z,100.00
2023-02-19T17:29:53.937Z,100.00
2023-02-19T17:32:42.211Z,100.00
2023-02-19T17:35:19.792Z,100.00
2023-02-19T17:38:10.288Z,100.00
2023-02-19T17:44:30.275Z,100.00
2023-02-19T17:47:22.451Z,100.00
2023-02-19T17:50:09.515Z,100.00
2023-02-19T17:53:01.914Z,100.00
2023-02-19T17:55:47.416Z,100.00
2023-02-19T17:58:35.635Z,100.00
2023-02-19T18:01:13.993Z,100.00
2023-02-19T18:03:54.756Z,100.00
2023-02-19T18:06:35.095Z,100.00
2023-02-19T18:09:23.061Z,100.00
2023-02-19T18:12:07.482Z,100.00
2023-02-19T18:14:59.144Z,100.00
2023-02-19T18:17:42.724Z,100.00
2023-02-19T18:20:35.329Z,100.00
2023-02-19T18:23:22.131Z,100.00
2023-02-19T18:26:13.454Z,100.00
2023-02-19T18:29:01.808Z,100.00
2023-02-19T18:31:54.570Z,100.00
2023-02-19T18:35:02.067Z,100.00
2023-02-19T18:37:59.046Z,100.00
2023-02-19T18:40:52.458Z,100.00
2023-02-19T18:43:34.810Z,100.00
2023-02-19T18:46:24.650Z,100.00
2023-02-19T18:49:20.751Z,100.00
2023-02-19T18:52:04.429Z,100.00
2023-02-19T18:54:36.958Z,100.00
2023-02-19T18:57:15.447Z,100.00
2023-02-19T19:00:06.552Z,100.00
2023-02-19T19:02:51.113Z,100.00
2023-02-19T19:06:02.127Z,100.00
2023-02-19T19:08:42.765Z,100.00
2023-02-19T19:11:22.701Z,100.00
2023-02-19T19:14:04.958Z,100.00
2023-02-19T19:16:45.925Z,100.00
2023-02-19T19:19:30.285Z,100.00
2023-02-19T19:22:29.199Z,100.00
2023-02-19T19:25:09.958Z,100.00
2023-02-19T19:27:56.652Z,100.00
2023-02-19T19:30:45.655Z,100.00
2023-02-19T19:33:31.522Z,100.00
2023-02-19T19:36:23.344Z,100.00
2023-02-19T19:39:00.813Z,100.00
2023-02-19T19:41:41.376Z,100.00
2023-02-19T19:44:25.286Z,100.00
2023-02-19T19:47:01.364Z,100.00
2023-02-19T19:49:42.338Z,100.00
2023-02-19T19:52:27.209Z,100.00
2023-02-19T19:55:04.178Z,100.00
2023-02-19T19:57:46.184Z,100.00
2023-02-19T20:00:32.377Z,100.00
2023-02-19T20:03:27.346Z,100.00
2023-02-19T20:06:17.218Z,100.00
2023-02-19T20:09:04.280Z,100.00
2023-02-19T20:11:52.737Z,100.00
2023-02-19T20:14:41.597Z,100.00
2023-02-19T20:17:28.996Z,100.00
2023-02-19T20:20:13.641Z,100.00
2023-02-19T20:22:59.901Z,100.00
2023-02-19T20:25:37.816Z,100.00
2023-02-19T20:28:16.098Z,100.00
2023-02-19T20:31:13.983Z,100.00
2023-02-19T20:33:52.229Z,100.00
2023-02-19T20:36:33.078Z,100.00
2023-02-19T20:39:15.377Z,100.00
2023-02-19T20:41:59.222Z,100.00
2023-02-19T20:44:40.573Z,100.00
2023-02-19T20:47:31.529Z,99.77
2023-02-19T20:50:32.208Z,97.24
2023-02-19T20:53:18.137Z,96.53
2023-02-19T20:56:06.217Z,94.89
2023-02-19T20:58:52.730Z,93.43
2023-02-19T21:01:37.367Z,93.69
2023-02-19T21:04:22.040Z,92.81
2023-02-19T21:07:15.116Z,92.29
2023-02-19T21:09:57.347Z,92.21
2023-02-19T21:12:59.388Z,91.45
2023-02-19T21:15:45.123Z,91.29
2023-02-19T21:18:22.807Z,90.21
2023-02-19T21:21:03.613Z,90.81
2023-02-19T21:23:47.231Z,91.65
2023-02-19T21:26:32.346Z,91.84
2023-02-19T21:29:11.726Z,92.94
2023-02-19T21:31:58.157Z,92.22
2023-02-19T21:34:36.044Z,92.33
2023-02-19T21:37:17.344Z,92.17
2023-02-19T21:39:56.214Z,92.76
2023-02-19T21:42:37.965Z,93.20
2023-02-19T21:45:10.507Z,92.98
2023-02-19T21:48:02.201Z,92.79
2023-02-19T21:50:40.466Z,92.48
2023-02-19T21:53:27.204Z,92.20
2023-02-19T21:56:23.093Z,91.49
2023-02-19T21:58:57.954Z,91.52
2023-02-19T22:01:53.482Z,92.10
2023-02-19T22:04:35.040Z,92.70
2023-02-19T22:07:19.216Z,92.71
2023-02-19T22:10:08.637Z,92.65
2023-02-19T22:12:50.327Z,92.62
2023-02-19T22:15:33.896Z,91.95
2023-02-19T22:18:13.414Z,92.25
2023-02-19T22:21:03.621Z,91.37
2023-02-19T22:23:44.108Z,91.22
2023-02-19T22:26:45.909Z,88.85
2023-02-19T22:29:31.070Z,86.10
2023-02-19T22:32:14.250Z,82.84
2023-02-19T22:35:04.898Z,82.07
2023-02-19T22:38:01.635Z,81.85
2023-02-19T22:40:49.223Z,82.05
2023-02-19T22:43:33.092Z,83.44
2023-02-19T22:46:23.179Z,86.20
2023-02-19T22:49:07.414Z,86.11
2023-02-19T22:52:08.516Z,84.45
2023-02-19T22:54:37.409Z,84.21
2023-02-19T22:57:20.368Z,82.51
2023-02-19T23:00:23.788Z,81.26
2023-02-19T23:03:10.042Z,80.04
2023-02-19T23:06:05.169Z,79.37
2023-02-19T23:08:52.329Z,79.14
2023-02-19T23:11:43.623Z,79.10
2023-02-19T23:14:39.312Z,79.34
2023-02-19T23:17:23.333Z,78.47
2023-02-19T23:20:22.338Z,78.73
2023-02-19T23:23:11.575Z,76.87
2023-02-19T23:26:04.308Z,78.17
2023-02-19T23:28:42.125Z,77.34
2023-02-19T23:31:18.341Z,78.38
2023-02-19T23:33:56.992Z,79.26
2023-02-19T23:37:03.360Z,79.30
2023-02-19T23:39:44.403Z,79.97
2023-02-19T23:42:28.480Z,80.21
2023-02-19T23:45:22.002Z,81.03
2023-02-19T23:48:12.761Z,80.09
2023-02-19T23:50:53.458Z,81.48
2023-02-19T23:53:49.352Z,82.32
2023-02-19T23:56:29.380Z,82.47
2023-02-19T23:59:10.828Z,83.96
